Lodge, SC (29082)

2:30 AM EDT on April 26, 2015 (GMT -0400)
KQ4WH, Skunkworks | | Change Station
CLOSE
Current Station
Personal Weather Station
Location: Smoaks, SC
Elevation: 108 ft
Nearby Weather Stations
Active Advisory: Flood Warning

Elev 108 ft 33.09 °N, 80.81 °W | Updated 15 seconds ago

Partly Cloudy
Partly Cloudy
63.7 °F
Feels Like 63.7 °F
N
0.0
Wind Variable Wind from SSW
Gusts 5.5 mph

Today
High -- | Low -- °F
--% Chance of Precip.
Yesterday
High -- | Low -- °F
Precip. -- in
6:41 AM 8:02 PM
First Quarter, 53% visible
Pressure 29.63 in
Visibility 10.0 miles
Clouds Clear
Dew Point 62 °F
Humidity 94%
Rainfall 0.05 in
Snow Depth Not available.
UV 0 out of 12
Pollen 4.30 out of 12
Air Quality Not available.
Flu Activity Local Activity
METAR KRBW 260615Z AUTO 22007KT 10SM CLR 17/17 A2963 RMK AO2

More Conditions Fewer Conditions

Pressure 29.63 in
Visibility 10.0 miles
Clouds Clear
Dew Point 62 °F
Humidity 94%
Rainfall 0.05 in
Snow Depth Not available.
UV 0 out of 12
Pollen 4.30 out of 12
Air Quality Not available.
Flu Activity Local Activity
METAR KRBW 260615Z AUTO 22007KT 10SM CLR 17/17 A2963 RMK AO2

More Conditions Fewer Conditions

The full scope of the disaster following a powerful 7.8-magnitude earthquake in Nepal may not come into view for days, but global charities are already sending emergency aid. Click to see how you can help.

10-Day Weather Forecast

Almanac

Astronomy

Apr. 26, 2015 Rise Set
Actual Time
Civil Twilight
Nautical Twilight
Astronomical Twilight
Moon
Length of Visible Light
Length of Day
Tomorrow will be .
, % of the Moon is Illuminated

Today's Extremes

State Highs State Lows

Community

WunderPhotos

Upload Photos

1,816,947 photos uploaded!

WunderBlogs® & News

Nearby

Air Quality

  Air Quality AQ Index Pollutant
Not available.

Snow Depth

Station Depth Elevation

Earthquake Activity

City Distance Mag. Time & Date
Minimum magnitude displayed is 2.5.

Coastal Water Temperatures

Place Temperature

Stations

Nearby Weather Stations

Station Location Temp. Windchill Dew Point Humidity Wind Precip. Elev Updated Type
                   
Flood Warning
Statement as of 8:40 PM EDT on April 25, 2015

The Flood Warning continues for
the edisto river near Givhans Ferry.
* At 8 PM Saturday the stage was 10.3 feet.
* Flood stage is 10.0 feet.
* Minor flooding is occurring.
* Forecast, the river will rise to near 10.3 feet by early Sunday
morning. The river will then fall below flood stage Monday evening.
* At 10.0 feet, water begins to affect the ends of numerous river
access roads including happiness Lane, Canon Road, Cardinal Lane,
Huckleberry Hill Lane, and gator walk.


Lat... Lon 3303 8055 3310 8053 3308 8036 3290 8037
          3290 8045 3302 8044